createdAt,value
2018-08-13T00:00:06.550Z,92.08
2018-08-13T00:02:35.786Z,91.73
2018-08-13T00:05:05.585Z,92.40
2018-08-13T00:07:34.846Z,92.35
2018-08-13T00:10:05.207Z,93.07
2018-08-13T00:12:34.368Z,92.75
2018-08-13T00:15:03.637Z,93.30
2018-08-13T00:17:32.906Z,93.12
2018-08-13T00:20:02.180Z,93.39
2018-08-13T00:22:31.381Z,93.33
2018-08-13T00:25:00.670Z,93.86
2018-08-13T00:27:29.891Z,93.82
2018-08-13T00:29:59.092Z,94.09
2018-08-13T00:32:28.226Z,94.00
2018-08-13T00:34:57.421Z,94.44
2018-08-13T00:37:26.685Z,94.61
2018-08-13T00:39:55.851Z,94.45
2018-08-13T00:42:25.119Z,94.60
2018-08-13T00:44:54.349Z,94.72
2018-08-13T00:47:23.600Z,94.54
2018-08-13T00:49:52.785Z,94.38
2018-08-13T00:52:22.054Z,94.10
2018-08-13T00:54:51.205Z,93.88
2018-08-13T00:57:20.416Z,94.38
2018-08-13T00:59:49.621Z,93.84
2018-08-13T01:02:18.897Z,94.38
2018-08-13T01:04:48.119Z,94.19
2018-08-13T01:07:17.444Z,94.63
2018-08-13T01:09:47.496Z,94.88
2018-08-13T01:12:16.648Z,95.15
2018-08-13T01:14:45.859Z,95.00
2018-08-13T01:17:15.106Z,94.76
2018-08-13T01:19:44.314Z,95.25
2018-08-13T01:22:13.553Z,95.09
2018-08-13T01:24:42.717Z,94.76
2018-08-13T01:27:16.712Z,95.31
2018-08-13T01:29:46.042Z,95.96
2018-08-13T01:32:16.105Z,95.93
2018-08-13T01:34:47.053Z,95.77
2018-08-13T01:37:16.280Z,96.30
2018-08-13T01:39:47.693Z,96.15
2018-08-13T01:42:16.849Z,96.22
2018-08-13T01:44:46.140Z,95.93
2018-08-13T01:47:15.354Z,95.70
2018-08-13T01:49:44.560Z,96.16
2018-08-13T01:52:13.877Z,96.79
2018-08-13T01:54:43.089Z,96.42
2018-08-13T01:57:12.461Z,97.03
2018-08-13T01:59:42.071Z,97.14
2018-08-13T02:02:11.999Z,96.95
2018-08-13T02:04:41.457Z,97.06
2018-08-13T02:07:11.105Z,97.19
2018-08-13T02:09:41.449Z,97.37
2018-08-13T02:12:12.206Z,96.96
2018-08-13T02:14:41.438Z,96.63
2018-08-13T02:17:11.611Z,96.92
2018-08-13T02:19:40.855Z,96.74
2018-08-13T02:22:10.066Z,97.16
2018-08-13T02:24:39.312Z,97.34
2018-08-13T02:27:08.861Z,97.26
2018-08-13T02:29:38.066Z,97.16
2018-08-13T02:32:07.296Z,97.13
2018-08-13T02:34:36.538Z,97.70
2018-08-13T02:37:05.820Z,97.68
2018-08-13T02:39:35.149Z,97.70
2018-08-13T02:42:04.423Z,98.21
2018-08-13T02:44:33.676Z,97.80
2018-08-13T02:47:03.072Z,97.43
2018-08-13T02:49:32.342Z,97.76
2018-08-13T02:52:01.501Z,97.40
2018-08-13T02:54:30.766Z,97.59
2018-08-13T02:56:59.966Z,97.43
2018-08-13T02:59:29.190Z,97.81
2018-08-13T03:01:58.441Z,97.56
2018-08-13T03:04:27.665Z,98.07
2018-08-13T03:06:56.833Z,97.84
2018-08-13T03:09:26.307Z,98.07
2018-08-13T03:11:55.992Z,98.09
2018-08-13T03:14:25.176Z,98.78
2018-08-13T03:16:54.404Z,98.29
2018-08-13T03:19:23.663Z,98.89
2018-08-13T03:21:52.903Z,99.65
2018-08-13T03:24:22.177Z,99.24
2018-08-13T03:26:51.330Z,98.97
2018-08-13T03:29:20.550Z,99.22
2018-08-13T03:31:50.461Z,98.90
2018-08-13T03:34:19.690Z,99.19
2018-08-13T03:36:48.889Z,98.98
2018-08-13T03:39:18.118Z,99.05
2018-08-13T03:41:47.405Z,99.52
2018-08-13T03:44:16.587Z,99.31
2018-08-13T03:46:45.798Z,99.53
2018-08-13T03:49:15.010Z,99.44
2018-08-13T03:51:44.207Z,99.36
2018-08-13T03:54:13.439Z,99.31
2018-08-13T03:56:42.629Z,99.39
2018-08-13T03:59:11.853Z,99.42
2018-08-13T04:01:41.303Z,98.67
2018-08-13T04:04:10.502Z,98.69
2018-08-13T04:06:39.732Z,98.18
2018-08-13T04:09:09.880Z,98.56
2018-08-13T04:11:39.725Z,99.39
2018-08-13T04:14:09.745Z,99.63
2018-08-13T04:16:39.500Z,100.00
2018-08-13T04:19:09.579Z,99.92
2018-08-13T04:21:38.784Z,100.00
2018-08-13T04:24:08.168Z,100.00
2018-08-13T04:26:37.428Z,100.00
2018-08-13T04:29:06.880Z,100.00
2018-08-13T04:31:36.474Z,100.00
2018-08-13T04:34:05.750Z,100.00
2018-08-13T04:36:34.928Z,99.30
2018-08-13T04:39:06.531Z,99.50
2018-08-13T04:41:35.775Z,99.41
2018-08-13T04:44:05.401Z,99.31
2018-08-13T04:46:34.655Z,99.45
2018-08-13T04:49:04.044Z,99.64
2018-08-13T04:51:33.535Z,99.44
2018-08-13T04:54:02.845Z,98.55
2018-08-13T04:56:32.068Z,97.95
2018-08-13T04:59:01.328Z,97.81
2018-08-13T05:01:30.589Z,97.56
2018-08-13T05:03:59.817Z,97.39
2018-08-13T05:06:29.103Z,96.89
2018-08-13T05:08:58.307Z,96.41
2018-08-13T05:11:27.529Z,96.87
2018-08-13T05:13:56.965Z,96.82
2018-08-13T05:16:26.211Z,96.65
2018-08-13T05:18:55.957Z,96.26
2018-08-13T05:21:25.214Z,96.21
2018-08-13T05:23:54.458Z,95.38
2018-08-13T05:26:23.611Z,94.24
2018-08-13T05:28:52.805Z,93.83
2018-08-13T05:31:21.983Z,94.09
2018-08-13T05:33:51.169Z,93.98
2018-08-13T05:36:20.374Z,93.60
2018-08-13T05:38:49.612Z,94.38
2018-08-13T05:41:18.829Z,93.47
2018-08-13T05:43:48.334Z,92.42
2018-08-13T05:46:17.677Z,91.73
2018-08-13T05:48:47.886Z,91.96
2018-08-13T05:51:17.084Z,92.35
2018-08-13T05:53:46.287Z,91.93
2018-08-13T05:56:15.514Z,91.53
2018-08-13T05:58:44.798Z,92.50
2018-08-13T06:01:13.986Z,91.93
2018-08-13T06:03:43.230Z,89.98
2018-08-13T06:06:12.437Z,91.27
2018-08-13T06:08:41.668Z,89.47
2018-08-13T06:11:12.267Z,90.17
2018-08-13T06:13:41.351Z,90.51
2018-08-13T06:16:10.567Z,91.21
2018-08-13T06:18:39.834Z,90.20
2018-08-13T06:21:09.386Z,89.94
2018-08-13T06:23:38.696Z,91.41
2018-08-13T06:26:07.906Z,87.86
2018-08-13T06:28:37.113Z,87.31
2018-08-13T06:31:06.418Z,87.32
2018-08-13T06:33:35.819Z,85.64
2018-08-13T06:36:05.008Z,84.23
2018-08-13T06:38:34.222Z,85.20
2018-08-13T06:41:04.655Z,84.80
2018-08-13T06:43:33.835Z,81.86
2018-08-13T06:46:03.121Z,83.18
2018-08-13T06:48:32.497Z,81.62
2018-08-13T06:51:01.854Z,83.22
2018-08-13T06:53:31.033Z,82.92
2018-08-13T06:56:00.312Z,84.26
2018-08-13T06:58:29.521Z,83.04
2018-08-13T07:00:58.738Z,83.37
2018-08-13T07:03:27.924Z,81.66
2018-08-13T07:05:57.201Z,82.41
2018-08-13T07:08:26.437Z,81.30
2018-08-13T07:10:55.673Z,80.30
2018-08-13T07:13:24.889Z,81.59
2018-08-13T07:15:54.228Z,79.78
2018-08-13T07:18:23.475Z,79.79
2018-08-13T07:20:52.677Z,78.76
2018-08-13T07:23:21.985Z,77.60
2018-08-13T07:25:51.240Z,77.24
2018-08-13T07:28:20.441Z,76.17
2018-08-13T07:30:50.050Z,76.84
2018-08-13T07:33:19.236Z,73.72
2018-08-13T07:35:48.417Z,75.67
2018-08-13T07:38:17.691Z,74.32
2018-08-13T07:40:46.854Z,73.99
2018-08-13T07:43:16.120Z,73.38
2018-08-13T07:45:45.351Z,71.64
2018-08-13T07:48:14.453Z,70.11
2018-08-13T07:50:43.706Z,71.03
2018-08-13T07:53:12.933Z,69.30
2018-08-13T07:55:42.214Z,68.96
2018-08-13T07:58:11.477Z,67.10
2018-08-13T08:00:40.777Z,65.09
2018-08-13T08:03:10.049Z,65.15
2018-08-13T08:05:39.310Z,66.25
2018-08-13T08:08:08.802Z,68.19
2018-08-13T08:10:38.041Z,67.50
2018-08-13T08:13:07.741Z,68.46
2018-08-13T08:15:36.995Z,68.65
2018-08-13T08:18:06.336Z,67.14
2018-08-13T08:20:35.531Z,67.59
2018-08-13T08:23:04.819Z,67.52
2018-08-13T08:25:34.061Z,67.93
2018-08-13T08:28:03.288Z,67.95
2018-08-13T08:30:32.496Z,64.86
2018-08-13T08:33:01.657Z,66.39
2018-08-13T08:35:30.925Z,66.82
2018-08-13T08:38:00.188Z,65.81
2018-08-13T08:40:29.487Z,65.79
2018-08-13T08:42:58.652Z,62.82
2018-08-13T08:45:28.318Z,63.61
2018-08-13T08:47:57.925Z,64.05
2018-08-13T08:50:27.310Z,62.03
2018-08-13T08:52:56.578Z,63.03
2018-08-13T08:55:25.858Z,63.21
2018-08-13T08:57:55.150Z,63.47
2018-08-13T09:00:24.929Z,61.90
2018-08-13T09:02:54.201Z,63.10
2018-08-13T09:05:23.431Z,61.94
2018-08-13T09:07:52.732Z,61.21
2018-08-13T09:10:21.944Z,62.61
2018-08-13T09:12:51.099Z,62.30
2018-08-13T09:15:20.397Z,60.65
2018-08-13T09:18:00.693Z,61.18
2018-08-13T09:20:41.033Z,60.60
2018-08-13T09:23:22.333Z,60.05
2018-08-13T09:26:03.098Z,56.61
2018-08-13T09:28:43.298Z,58.22
2018-08-13T09:32:33.541Z,57.37
2018-08-13T09:35:16.239Z,57.59
2018-08-13T09:37:45.589Z,57.38
2018-08-13T09:40:14.950Z,57.04
2018-08-13T09:42:44.176Z,55.20
2018-08-13T09:45:13.790Z,56.58
2018-08-13T09:47:43.021Z,56.26
2018-08-13T09:50:14.723Z,54.10
2018-08-13T09:52:44.531Z,54.09
2018-08-13T09:55:14.546Z,55.26
2018-08-13T09:57:44.772Z,52.39
2018-08-13T10:00:20.172Z,53.44
2018-08-13T10:02:49.923Z,51.71
2018-08-13T10:05:19.121Z,50.98
2018-08-13T10:07:48.457Z,51.34
2018-08-13T10:10:18.454Z,53.47
2018-08-13T10:12:48.456Z,50.61
2018-08-13T10:15:17.724Z,49.00
2018-08-13T10:17:47.002Z,48.23
2018-08-13T10:20:20.991Z,48.50
2018-08-13T10:22:50.231Z,48.07
2018-08-13T10:25:19.541Z,49.84
2018-08-13T10:27:48.744Z,48.94
2018-08-13T10:30:18.253Z,47.33
2018-08-13T10:32:47.492Z,46.20
2018-08-13T10:35:16.774Z,47.21
2018-08-13T10:37:45.977Z,44.58
2018-08-13T10:40:17.985Z,43.40
2018-08-13T10:42:47.788Z,42.71
2018-08-13T10:45:18.505Z,39.87
2018-08-13T10:47:47.765Z,42.43
2018-08-13T10:50:17.023Z,40.67
2018-08-13T10:52:46.252Z,41.63
2018-08-13T10:55:16.038Z,41.03
2018-08-13T10:57:45.261Z,42.00
2018-08-13T11:00:17.358Z,41.19
2018-08-13T11:02:46.622Z,42.74
2018-08-13T11:05:16.327Z,38.83
2018-08-13T11:07:45.552Z,39.23
2018-08-13T11:10:15.791Z,40.84
2018-08-13T11:12:45.146Z,41.54
2018-08-13T11:15:17.302Z,43.77
2018-08-13T11:17:46.781Z,42.27
2018-08-13T11:20:16.479Z,42.92
2018-08-13T11:22:45.975Z,44.69
2018-08-13T11:25:15.902Z,40.44
2018-08-13T11:27:45.280Z,43.00
2018-08-13T11:30:17.796Z,40.03
2018-08-13T11:32:47.132Z,41.47
2018-08-13T11:35:16.626Z,40.04
2018-08-13T11:37:46.061Z,39.72
2018-08-13T11:40:17.111Z,39.58
2018-08-13T11:42:46.411Z,38.92
2018-08-13T11:45:15.628Z,40.66
2018-08-13T11:47:44.995Z,39.58
2018-08-13T11:50:17.120Z,40.42
2018-08-13T11:52:47.955Z,39.79
2018-08-13T11:55:17.761Z,41.46
2018-08-13T11:57:53.671Z,39.91
2018-08-13T12:00:22.915Z,37.86
2018-08-13T12:02:52.121Z,40.43
2018-08-13T12:05:21.395Z,40.12
2018-08-13T12:07:50.676Z,39.84
2018-08-13T12:10:19.944Z,38.39
2018-08-13T12:12:49.225Z,37.89
2018-08-13T12:15:18.489Z,37.58
2018-08-13T12:17:47.878Z,40.42
2018-08-13T12:20:20.812Z,38.70
2018-08-13T12:22:50.079Z,38.82
2018-08-13T12:25:28.625Z,37.81
2018-08-13T12:27:58.720Z,37.36
2018-08-13T12:30:28.020Z,36.42
2018-08-13T12:32:57.396Z,35.99
2018-08-13T12:35:26.604Z,34.82
2018-08-13T12:37:55.953Z,35.72
2018-08-13T12:40:25.337Z,36.79
2018-08-13T12:42:54.628Z,35.99
2018-08-13T12:45:23.925Z,34.81
2018-08-13T12:47:53.128Z,33.99
2018-08-13T12:50:22.328Z,35.09
2018-08-13T12:52:52.562Z,35.78
2018-08-13T12:55:21.905Z,36.24
2018-08-13T12:57:51.090Z,36.37
2018-08-13T13:00:20.353Z,36.54
2018-08-13T13:02:49.591Z,35.46
2018-08-13T13:05:19.301Z,35.28
2018-08-13T13:07:48.573Z,33.89
2018-08-13T13:10:18.603Z,33.88
2018-08-13T13:12:47.847Z,33.57
2018-08-13T13:15:19.240Z,33.06
2018-08-13T13:17:48.711Z,34.02
2018-08-13T13:20:21.441Z,33.87
2018-08-13T13:22:51.217Z,33.96
2018-08-13T13:25:20.855Z,32.32
2018-08-13T13:27:50.100Z,33.80
2018-08-13T13:30:19.331Z,33.23
2018-08-13T13:32:48.627Z,32.39
2018-08-13T13:35:19.078Z,30.59
2018-08-13T13:37:48.292Z,31.32
2018-08-13T13:40:19.836Z,30.87
2018-08-13T13:42:49.069Z,31.62
2018-08-13T13:45:18.685Z,32.05
2018-08-13T13:47:48.001Z,30.54
2018-08-13T13:50:18.570Z,31.24
2018-08-13T13:52:47.957Z,31.35
2018-08-13T13:55:17.482Z,31.79
2018-08-13T13:57:46.813Z,31.97
2018-08-13T14:00:21.301Z,32.03
2018-08-13T14:02:51.709Z,31.72
2018-08-13T14:05:21.654Z,31.44
2018-08-13T14:07:51.005Z,31.97
2018-08-13T14:10:21.491Z,31.88
2018-08-13T14:12:50.805Z,31.08
2018-08-13T14:15:21.151Z,32.89
2018-08-13T14:17:50.806Z,31.32
2018-08-13T14:20:20.416Z,30.87
2018-08-13T14:22:49.703Z,32.01
2018-08-13T14:25:19.129Z,30.88
2018-08-13T14:27:48.285Z,32.70
2018-08-13T14:30:21.155Z,32.60
2018-08-13T14:32:50.793Z,32.96
2018-08-13T14:35:21.813Z,32.10
2018-08-13T14:37:51.244Z,32.93
2018-08-13T14:40:21.607Z,33.39
2018-08-13T14:42:50.859Z,32.47
2018-08-13T14:45:20.302Z,30.74
2018-08-13T14:47:50.832Z,32.63
2018-08-13T14:50:20.073Z,32.48
2018-08-13T14:52:50.033Z,31.46
2018-08-13T14:55:21.334Z,32.09
2018-08-13T14:57:50.643Z,32.46
2018-08-13T15:00:21.839Z,32.87
2018-08-13T15:02:51.805Z,32.96
2018-08-13T15:05:21.056Z,32.29
2018-08-13T15:07:50.314Z,34.14
2018-08-13T15:10:22.893Z,35.57
2018-08-13T15:12:52.214Z,35.17
2018-08-13T15:15:21.425Z,36.42
2018-08-13T15:17:50.768Z,36.74
2018-08-13T15:20:24.551Z,36.38
2018-08-13T15:22:54.008Z,35.17
2018-08-13T15:25:23.388Z,36.56
2018-08-13T15:27:52.733Z,35.39
2018-08-13T15:30:22.505Z,35.01
2018-08-13T15:32:52.794Z,34.09
2018-08-13T15:35:22.172Z,34.12
2018-08-13T15:37:51.770Z,33.81
2018-08-13T15:40:20.938Z,34.54
2018-08-13T15:42:50.303Z,34.27
2018-08-13T15:45:22.038Z,33.93
2018-08-13T15:47:51.560Z,34.98
2018-08-13T15:50:22.525Z,34.89
2018-08-13T15:52:52.244Z,36.96
2018-08-13T15:55:21.474Z,37.40
2018-08-13T15:57:50.814Z,34.37
2018-08-13T16:00:22.580Z,33.96
2018-08-13T16:02:52.093Z,37.33
2018-08-13T16:05:21.809Z,36.95
2018-08-13T16:07:51.821Z,36.59
2018-08-13T16:10:21.129Z,36.12
2018-08-13T16:12:50.457Z,36.33
2018-08-13T16:15:19.725Z,36.77
2018-08-13T16:17:48.954Z,37.74
2018-08-13T16:20:19.397Z,37.91
2018-08-13T16:22:49.225Z,38.01
2018-08-13T16:25:18.835Z,38.50
2018-08-13T16:27:48.298Z,38.69
2018-08-13T16:30:24.000Z,39.09
2018-08-13T16:32:53.262Z,38.60
2018-08-13T16:35:23.634Z,38.26
2018-08-13T16:37:52.849Z,39.44
2018-08-13T16:40:22.123Z,38.13
2018-08-13T16:42:51.787Z,39.33
2018-08-13T16:45:22.240Z,38.51
2018-08-13T16:47:51.706Z,38.85
2018-08-13T16:50:28.275Z,39.04
2018-08-13T16:52:57.953Z,40.15
2018-08-13T16:55:28.327Z,40.67
2018-08-13T16:57:57.821Z,40.33
2018-08-13T17:00:29.192Z,40.72
2018-08-13T17:02:59.106Z,40.12
2018-08-13T17:05:29.250Z,40.72
2018-08-13T17:07:58.448Z,40.75
2018-08-13T17:10:28.982Z,39.91
2018-08-13T17:12:58.972Z,40.18
2018-08-13T17:15:29.683Z,41.04
2018-08-13T17:18:00.448Z,40.67
2018-08-13T17:20:45.495Z,40.35
2018-08-13T17:23:14.699Z,40.92
2018-08-13T17:25:44.229Z,39.86
2018-08-13T17:28:13.565Z,40.29
2018-08-13T17:30:42.754Z,39.94
2018-08-13T17:33:11.999Z,41.09
2018-08-13T17:35:42.193Z,40.31
2018-08-13T17:38:12.141Z,40.74
2018-08-13T17:40:41.410Z,40.60
2018-08-13T17:43:12.712Z,40.45
2018-08-13T17:45:41.888Z,41.33
2018-08-13T17:48:11.486Z,41.38
2018-08-13T17:50:41.001Z,41.30
2018-08-13T17:53:11.036Z,41.76
2018-08-13T17:55:41.115Z,41.99
2018-08-13T17:58:14.372Z,42.66
2018-08-13T18:01:07.591Z,43.17
2018-08-13T18:03:54.949Z,43.42
2018-08-13T18:06:50.727Z,44.59
2018-08-13T18:09:45.405Z,46.38
2018-08-13T18:12:31.182Z,46.08
2018-08-13T18:15:26.802Z,46.43
2018-08-13T18:18:00.777Z,47.25
2018-08-13T18:20:53.299Z,47.61
2018-08-13T18:23:33.312Z,47.61
2018-08-13T18:26:03.992Z,48.04
2018-08-13T18:28:33.695Z,48.47
2018-08-13T18:31:03.286Z,47.01
2018-08-13T18:33:36.840Z,47.27
2018-08-13T18:36:12.584Z,47.89
2018-08-13T18:38:42.062Z,48.69
2018-08-13T18:41:12.241Z,50.70
2018-08-13T18:44:04.698Z,49.51
2018-08-13T18:46:45.316Z,49.59
2018-08-13T18:49:15.435Z,49.74
2018-08-13T18:51:45.212Z,48.89
2018-08-13T18:54:14.594Z,49.28
2018-08-13T18:56:43.803Z,49.83
2018-08-13T18:59:13.065Z,50.58
2018-08-13T19:01:43.470Z,51.54
2018-08-13T19:04:12.789Z,50.52
2018-08-13T19:06:42.252Z,52.08
2018-08-13T19:09:11.464Z,53.48
2018-08-13T19:11:40.712Z,55.67
2018-08-13T19:14:10.059Z,58.09
2018-08-13T19:16:39.556Z,60.63
2018-08-13T19:19:09.152Z,63.50
2018-08-13T19:21:39.001Z,66.28
2018-08-13T19:24:08.543Z,68.04
2018-08-13T19:26:37.887Z,69.88
2018-08-13T19:29:07.479Z,71.24
2018-08-13T19:31:37.265Z,73.54
2018-08-13T19:34:06.583Z,74.44
2018-08-13T19:36:35.886Z,76.13
2018-08-13T19:39:09.616Z,75.61
2018-08-13T19:41:38.865Z,76.20
2018-08-13T19:44:08.506Z,76.74
2018-08-13T19:46:37.834Z,77.23
2018-08-13T19:49:07.225Z,77.21
2018-08-13T19:51:36.533Z,78.11
2018-08-13T19:54:05.861Z,78.22
2018-08-13T19:56:35.104Z,78.33
2018-08-13T19:59:04.368Z,79.00
2018-08-13T20:01:33.670Z,78.70
2018-08-13T20:04:02.917Z,79.10
2018-08-13T20:06:32.119Z,78.90
2018-08-13T20:09:01.693Z,78.99
2018-08-13T20:11:30.962Z,79.14
2018-08-13T20:14:00.342Z,79.56
2018-08-13T20:16:29.609Z,79.21
2018-08-13T20:18:58.819Z,79.72
2018-08-13T20:21:28.191Z,79.80
2018-08-13T20:23:57.518Z,80.45
2018-08-13T20:26:26.744Z,81.38
2018-08-13T20:28:55.901Z,81.10
2018-08-13T20:31:25.147Z,80.51
2018-08-13T20:33:54.406Z,81.57
2018-08-13T20:36:23.638Z,82.08
2018-08-13T20:38:52.877Z,82.90
2018-08-13T20:41:22.124Z,83.83
2018-08-13T20:43:51.335Z,83.81
2018-08-13T20:46:20.799Z,84.23
2018-08-13T20:48:49.973Z,84.65
2018-08-13T20:51:19.168Z,85.12
2018-08-13T20:53:48.447Z,86.49
2018-08-13T20:56:17.629Z,88.07
2018-08-13T20:58:46.802Z,89.22
2018-08-13T21:01:15.967Z,90.55
2018-08-13T21:03:45.253Z,90.50
2018-08-13T21:06:14.324Z,91.35
2018-08-13T21:08:43.506Z,91.44
2018-08-13T21:11:12.655Z,92.28
2018-08-13T21:13:41.818Z,91.72
2018-08-13T21:16:11.055Z,92.47
2018-08-13T21:18:40.259Z,91.98
2018-08-13T21:21:09.634Z,92.27
2018-08-13T21:23:38.834Z,91.46
2018-08-13T21:26:08.020Z,91.35
2018-08-13T21:28:37.168Z,91.69
2018-08-13T21:31:06.578Z,91.30
2018-08-13T21:33:35.867Z,92.12
2018-08-13T21:36:05.117Z,91.90
2018-08-13T21:38:34.250Z,91.98
2018-08-13T21:41:03.551Z,92.45
2018-08-13T21:43:32.749Z,93.52
2018-08-13T21:46:01.946Z,94.42
2018-08-13T21:48:31.101Z,94.55
2018-08-13T21:51:00.261Z,95.11
2018-08-13T21:53:29.439Z,95.89
2018-08-13T21:55:58.598Z,95.29
2018-08-13T21:58:27.760Z,95.96
2018-08-13T22:01:02.238Z,96.22
2018-08-13T22:03:31.445Z,96.91
2018-08-13T22:06:00.621Z,96.53
2018-08-13T22:08:29.823Z,96.90
2018-08-13T22:10:59.087Z,96.49
2018-08-13T22:13:28.269Z,97.28
2018-08-13T22:15:57.660Z,98.12
2018-08-13T22:18:26.984Z,97.89
2018-08-13T22:20:56.171Z,97.15
2018-08-13T22:23:25.349Z,97.65
2018-08-13T22:25:54.637Z,97.27
2018-08-13T22:28:23.793Z,97.53
2018-08-13T22:30:52.956Z,97.49
2018-08-13T22:33:22.122Z,97.36
2018-08-13T22:35:51.332Z,97.33
2018-08-13T22:38:20.584Z,96.70
2018-08-13T22:40:49.830Z,96.74
2018-08-13T22:43:18.988Z,97.51
2018-08-13T22:45:48.194Z,97.60
2018-08-13T22:48:17.436Z,98.18
2018-08-13T22:50:47.137Z,96.95
2018-08-13T22:53:16.429Z,97.64
2018-08-13T22:55:45.622Z,96.97
2018-08-13T22:58:14.804Z,97.03
2018-08-13T23:00:44.098Z,97.89
2018-08-13T23:03:13.196Z,97.50
2018-08-13T23:05:42.346Z,98.24
2018-08-13T23:08:11.567Z,98.08
2018-08-13T23:10:40.920Z,98.39
2018-08-13T23:13:15.684Z,98.01
2018-08-13T23:15:45.072Z,97.41
2018-08-13T23:18:14.319Z,97.81
2018-08-13T23:20:43.567Z,98.44
2018-08-13T23:23:12.799Z,98.48
2018-08-13T23:25:42.030Z,98.55
2018-08-13T23:28:11.912Z,97.60
2018-08-13T23:30:41.211Z,98.44
2018-08-13T23:33:10.413Z,98.76
2018-08-13T23:35:39.633Z,98.98
2018-08-13T23:38:09.654Z,98.50
2018-08-13T23:40:38.901Z,98.83
2018-08-13T23:43:08.292Z,99.53
2018-08-13T23:45:37.495Z,99.23
2018-08-13T23:48:06.704Z,100.00
2018-08-13T23:50:35.893Z,100.00
2018-08-13T23:53:05.138Z,100.00
2018-08-13T23:55:36.579Z,100.00
2018-08-13T23:58:14.376Z,100.00
